Data for 06/11/2018

Time Sea-Level Adjusted Pressure Absolute Pressure Temperature Relative Humidity Dew Point   
(mb) (inHg) (mb) (inHg) (C) (F) (%) (C) (F)
00:05 1018 30.06 847 25.01 7.8 46 39 -5.1 22.7
00:10 1018 30.06 847 25.01 7.8 46 40 -4.9 23.2
00:15 1018 30.06 847 25.01 7.5 45.5 42 -4.7 23.5
00:20 1018 30.06 847 25.01 7.4 45.3 42 -4.7 23.5
00:25 1018 30.06 847 25.01 7.4 45.3 42 -4.6 23.6
00:30 1018 30.06 847 25.01 7.3 45.2 42 -4.8 23.4
00:35 1018 30.06 847 25.01 7.3 45.2 42 -4.7 23.6
00:40 1018 30.06 847 25.01 7.3 45.1 43 -4.4 24.2
00:45 1018 30.06 847 25.01 7.2 45 44 -4.3 24.2
00:50 1018 30.06 847 25.01 7.1 44.8 44 -4.1 24.5
00:55 1018 30.06 847 25.01 7 44.6 46 -3.9 25
01:00 1018 30.06 847 25.01 6.8 44.3 46 -4 24.8
01:05 1018 30.06 847 25.01 6.7 44.1 48 -3.6 25.5
01:10 1018 30.06 847 25.01 6.5 43.8 48 -3.6 25.5
01:15 1018 30.06 847 25.01 6.4 43.6 48 -3.7 25.4
01:20 1018 30.06 847 25.01 6.3 43.4 49 -3.7 25.3
01:25 1018 30.06 847 25.01 6.2 43.2 48 -3.9 25
01:30 1018 30.06 847 25.01 6.1 43.1 50 -3.5 25.7
01:35 1018 30.06 847 25.01 6.1 43 50 -3.6 25.5
01:40 1017 30.03 847 25.01 6.2 43.1 51 -3.1 26.4
01:45 1017 30.03 847 25.01 6.2 43.2 50 -3.5 25.6
01:50 1018 30.06 847 25.01 6.3 43.3 51 -3 26.5
01:55 1017 30.03 847 25.01 5.9 42.6 56 -2.2 28
02:00 1018 30.06 847 25.01 5.5 41.9 52 -3.4 25.8
02:05 1018 30.06 847 25.01 5.5 41.9 53 -3.2 26.3
02:10 1017 30.03 847 25.01 5.6 42.1 55 -2.8 27
02:15 1017 30.03 847 25.01 5.6 42.1 56 -2.5 27.5
02:20 1017 30.03 847 25.01 5.5 41.9 58 -2.2 28
02:25 1017 30.03 846 24.98 5.4 41.8 56 -2.5 27.4
02:30 1017 30.03 846 24.98 5.4 41.7 57 -2.5 27.6
02:35 1017 30.03 846 24.98 5.3 41.6 54 -3.1 26.4
02:40 1017 30.03 846 24.98 5.4 41.7 54 -3.2 26.3
02:45 1017 30.03 847 25.01 5.4 41.7 56 -2.8 27
02:50 1018 30.06 847 25.01 5.5 41.8 53 -3.4 25.8
02:55 1018 30.06 847 25.01 5.6 42.1 52 -3.4 25.9
03:00 1017 30.03 847 25.01 5.6 42.1 54 -3.1 26.5
03:05 1017 30.03 847 25.01 5.6 42 54 -2.9 26.7
03:10 1017 30.03 847 25.01 5.5 41.9 55 -2.8 26.9
03:15 1017 30.03 847 25.01 5.6 42 58 -2.1 28.3
03:20 1017 30.03 847 25.01 5.3 41.6 60 -1.7 29
03:25 1017 30.03 847 25.01 5.2 41.3 58 -2.3 27.8
03:30 1017 30.03 847 25.01 5.2 41.4 59 -2.2 28
03:35 1017 30.03 847 25.01 5.2 41.4 61 -1.6 29.1
03:40 1017 30.03 847 25.01 5.1 41.1 64 -1.3 29.7
03:45 1017 30.03 847 25.01 5.1 41.1 62 -1.6 29.1
03:50 1017 30.03 847 25.01 5.1 41.2 63 -1.4 29.5
03:55 1017 30.03 847 25.01 5.1 41.2 62 -1.5 29.3
04:00 1017 30.03 847 25.01 5.1 41.2 61 -1.8 28.8
04:05 1017 30.03 846 24.98 5.2 41.4 59 -2.2 28.1
04:10 1017 30.03 847 25.01 5.2 41.4 59 -2.2 28
04:15 1017 30.03 846 24.98 5.2 41.4 62 -1.5 29.4
04:20 1017 30.03 847 25.01 5.1 41.2 62 -1.5 29.4
04:25 1017 30.03 847 25.01 5.1 41.2 62 -1.6 29.1
04:30 1017 30.03 847 25.01 5.2 41.3 62 -1.5 29.3
04:35 1017 30.03 847 25.01 5.2 41.3 64 -1 30.1
04:40 1017 30.03 847 25.01 4.9 40.8 63 -1.6 29.1
04:45 1017 30.03 847 25.01 4.9 40.8 66 -1 30.2
04:50 1017 30.03 847 25.01 4.9 40.8 67 -0.8 30.6
04:55 1018 30.06 847 25.01 4.8 40.7 67 -0.7 30.8
05:00 1018 30.06 847 25.01 4.7 40.5 67 -0.8 30.5
05:05 1018 30.06 847 25.01 4.9 40.8 65 -1.1 30.1
05:10 1018 30.06 847 25.01 4.8 40.7 67 -0.7 30.7
05:15 1018 30.06 847 25.01 4.8 40.6 67 -0.8 30.5
05:20 1018 30.06 847 25.01 5 41.1 63 -1.4 29.5
05:25 1018 30.06 847 25.01 5.4 41.6 60 -1.8 28.7
05:30 1018 30.06 847 25.01 5.6 42.1 55 -2.8 26.9
05:35 1018 30.06 847 25.01 6 42.8 54 -2.5 27.4
05:40 1018 30.06 847 25.01 6.1 42.9 53 -2.8 26.9
05:45 1018 30.06 847 25.01 6.2 43.1 54 -2.4 27.6
05:50 1018 30.06 847 25.01 6 42.8 54 -2.7 27.1
05:55 1018 30.06 847 25.01 6.1 42.9 54 -2.4 27.6
06:00 1018 30.06 847 25.01 6 42.8 55 -2.3 27.9
06:05 1018 30.06 847 25.01 5.9 42.7 55 -2.3 27.8
06:10 1018 30.06 847 25.01 6 42.7 56 -2.2 28.1
06:15 1018 30.06 847 25.01 5.9 42.6 56 -2.2 28
06:20 1018 30.06 847 25.01 5.8 42.4 57 -2 28.5
06:25 1018 30.06 847 25.01 5.7 42.2 59 -1.7 28.9
06:30 1018 30.06 847 25.01 5.6 42.1 59 -1.7 29
06:35 1018 30.06 847 25.01 5.6 42 60 -1.6 29.1
06:40 1018 30.06 847 25.01 5.5 42 62 -1.2 29.8
06:45 1017 30.03 847 25.01 5.5 42 62 -1.1 30
06:50 1017 30.03 847 25.01 5.4 41.7 63 -1.1 30
06:55 1017 30.03 847 25.01 5.3 41.6 64 -0.8 30.5
07:00 1017 30.03 847 25.01 5.4 41.7 65 -0.7 30.7
07:05 1017 30.03 847 25.01 5.4 41.7 64 -0.8 30.6
07:10 1017 30.03 847 25.01 5.5 41.8 64 -0.8 30.5
07:15 1017 30.03 847 25.01 5.3 41.6 66 -0.5 31.1
07:20 1017 30.03 847 25.01 5.2 41.3 67 -0.4 31.3
07:25 1018 30.06 847 25.01 5.1 41.2 68 -0.2 31.7
07:30 1017 30.03 847 25.01 5.1 41.1 69 -0.2 31.6
07:35 1018 30.06 847 25.01 4.9 40.8 70 -0.2 31.7
07:40 1018 30.06 847 25.01 4.9 40.8 74 0.6 33.1
07:45 1018 30.06 847 25.01 4.9 40.9 71 0.1 32.2
07:50 1017 30.03 847 25.01 4.9 40.9 74 0.7 33.3
07:55 1017 30.03 847 25.01 4.8 40.7 73 0.3 32.6
08:00 1017 30.03 847 25.01 4.8 40.6 74 0.5 32.9
08:05 1017 30.03 847 25.01 4.6 40.3 75 0.6 33.1
08:10 1017 30.03 847 25.01 4.5 40.2 78 0.9 33.7
08:15 1017 30.03 847 25.01 4.4 39.9 78 0.9 33.5
08:20 1017 30.03 847 25.01 4.3 39.8 79 1 33.8
08:25 1017 30.03 847 25.01 4.3 39.7 80 1.2 34.1
08:30 1017 30.03 847 25.01 4.3 39.7 79 1 33.8
08:35 1017 30.03 847 25.01 4.2 39.6 79 1 33.8
08:40 1017 30.03 847 25.01 4.2 39.6 80 1.1 33.9
08:45 1017 30.03 847 25.01 4.2 39.6 81 1.2 34.2
08:50 1017 30.03 847 25.01 4.2 39.5 81 1.2 34.2
08:55 1017 30.03 847 25.01 4.1 39.4 82 1.3 34.4
09:00 1017 30.03 847 25.01 4.1 39.3 83 1.4 34.4
09:05 1017 30.03 847 25.01 3.9 39.1 84 1.4 34.6
09:10 1017 30.03 847 25.01 3.9 39 83 1.3 34.4
09:15 1017 30.03 847 25.01 3.9 39 83 1.2 34.2
09:20 1017 30.03 847 25.01 4 39.1 83 1.3 34.4
09:25 1017 30.03 847 25.01 4 39.2 80 0.8 33.5
09:30 1017 30.03 846 24.98 4.2 39.6 81 1.2 34.2
09:35 1017 30.03 846 24.98 4.2 39.6 81 1.3 34.4
09:40 1017 30.03 846 24.98 4.1 39.4 82 1.4 34.5
09:45 1017 30.03 846 24.98 4.1 39.4 83 1.5 34.8
09:50 1017 30.03 846 24.98 4.3 39.7 82 1.5 34.7
09:55 1017 30.03 846 24.98 4.4 39.9 82 1.7 35
10:00 1017 30.03 846 24.98 4.4 39.9 82 1.5 34.8
10:05 1017 30.03 846 24.98 4.4 39.9 80 1.3 34.3
10:10 1017 30.03 846 24.98 4.5 40.1 77 0.7 33.3
10:15 1017 30.03 846 24.98 4.6 40.4 78 1.1 33.9
10:20 1017 30.03 846 24.98 5 41 76 1 33.9
10:25 1017 30.03 846 24.98 5 41 76 1.1 33.9
10:30 1017 30.03 846 24.98 5.3 41.5 76 1.4 34.5
10:35 1017 30.03 846 24.98 5.6 42.1 72 1 33.8
10:40 1017 30.03 846 24.98 5.5 41.9 73 1 33.8
10:45 1017 30.03 846 24.98 5.8 42.4 74 1.5 34.7
10:50 1017 30.03 846 24.98 5.9 42.7 72 1.4 34.4
10:55 1017 30.03 846 24.98 6.1 43 71 1.2 34.2
11:00 1017 30.03 846 24.98 6.4 43.6 69 1.2 34.2
11:05 1017 30.03 846 24.98 6.7 44 70 1.7 35
11:10 1017 30.03 846 24.98 6.6 43.8 72 1.9 35.5
11:15 1017 30.03 846 24.98 6.7 44.1 68 1.2 34.1
11:20 1017 30.03 846 24.98 6.7 44.1 69 1.4 34.6
11:25 1017 30.03 846 24.98 6.7 44.1 68 1.2 34.1
11:30 1017 30.03 846 24.98 7 44.5 66 1.1 33.9
11:35 1017 30.03 846 24.98 7.4 45.2 63 0.9 33.5
11:40 1017 30.03 846 24.98 7.7 45.8 62 0.8 33.5
11:45 1016 30 846 24.98 8 46.5 61 1 33.7
11:50 1016 30 846 24.98 8.4 47.1 60 1.1 33.9
11:55 1016 30 846 24.98 8.9 48.1 58 1.2 34.1
12:00 1016 30 846 24.98 9.3 48.8 57 1.4 34.5
12:05 1016 30 846 24.98 10 50.1 55 1.5 34.7
12:10 1016 30 846 24.98 10.3 50.5 50 0.5 32.9
12:15 1016 30 846 24.98 10.3 50.6 44 -1.3 29.7
12:20 1016 30 846 24.98 11.1 51.9 43 -1 30.2
12:25 1016 30 845 24.95 11.7 53.1 39 -1.7 29
12:30 1016 30 845 24.95 11.7 53.1 38 -2 28.3
12:35 1016 30 846 24.98 11.7 53 40 -1.4 29.5
12:40 1016 30 846 24.98 11.8 53.2 36 -2.6 27.3
12:45 1016 30 845 24.95 11.7 53.1 39 -1.8 28.8
12:50 1016 30 845 24.95 11.9 53.3 36 -2.7 27.1
12:55 1016 30 845 24.95 12.4 54.2 32 -3.7 25.3
13:00 1016 30 845 24.95 12.7 54.9 33 -3.3 26.1
13:05 1016 30 845 24.95 12.6 54.8 33 -3.2 26.3
13:10 1016 30 845 24.95 12.7 54.9 33 -3.3 26.1
13:15 1016 30 845 24.95 13 55.4 32 -3.4 25.8
13:20 1016 30 845 24.95 12.9 55.3 31 -3.6 25.5
13:25 1016 30 845 24.95 13.5 56.3 29 -4.3 24.3
13:30 1016 30 845 24.95 13.7 56.7 30 -3.5 25.7
13:35 1016 30 845 24.95 13.4 56.2 30 -3.9 25
13:40 1016 30 845 24.95 13.4 56.1 31 -3.3 26.1
13:45 1016 30 845 24.95 13.5 56.2 32 -2.7 27.1
13:50 1016 30 845 24.95 13.9 57.1 32 -2.6 27.4
13:55 1016 30 845 24.95 13.6 56.4 38 -0.3 31.4
14:00 1016 30 845 24.95 12.3 54.1 41 -0.5 31.1
14:05 1016 30 845 24.95 11.6 52.9 42 -0.8 30.5
14:10 1016 30 846 24.98 11.6 52.9 44 -0.1 31.8
14:15 1017 30.03 846 24.98 11.1 51.9 47 0.2 32.4
14:20 1017 30.03 846 24.98 11 51.8 46 -0.2 31.7
14:25 1017 30.03 846 24.98 11.7 53 43 -0.3 31.5
14:30 1017 30.03 846 24.98 12 53.7 40 -1.1 29.9
14:35 1017 30.03 846 24.98 12.2 54 39 -1.3 29.6
14:40 1017 30.03 846 24.98 12.3 54.1 38 -1.7 28.9
14:45 1016 30 846 24.98 12.9 55.3 39 -0.8 30.6
14:50 1016 30 845 24.95 13.4 56.2 35 -1.6 29.2
14:55 1016 30 845 24.95 13.2 55.7 33 -2.7 27.2
15:00 1016 30 846 24.98 12.5 54.5 44 0.5 32.9
15:05 1017 30.03 846 24.98 10.7 51.2 50 0.9 33.6
15:10 1017 30.03 846 24.98 9.6 49.4 52 0.4 32.7
15:15 1018 30.06 847 25.01 9.1 48.3 52 -0.2 31.7
15:20 1018 30.06 847 25.01 8.7 47.6 54 0 32.1
15:25 1018 30.06 847 25.01 8.3 47 57 0.3 32.5
15:30 1018 30.06 847 25.01 7.9 46.2 60 0.6 33.1
15:35 1018 30.06 847 25.01 7.6 45.6 62 0.7 33.2
15:40 1018 30.06 847 25.01 7.2 45 61 0.1 32.2
15:45 1018 30.06 848 25.04 7.2 44.9 60 -0 31.9
15:50 1019 30.09 848 25.04 7 44.6 62 0.3 32.6
15:55 1019 30.09 848 25.04 7 44.5 61 -0.1 31.8
16:00 1019 30.09 848 25.04 6.8 44.3 61 -0.1 31.7
16:05 1019 30.09 848 25.04 7 44.7 59 -0.4 31.3
16:10 1019 30.09 849 25.07 7.3 45.2 58 -0.3 31.4
16:15 1019 30.09 849 25.07 7.3 45.1 61 0.3 32.5
16:20 1019 30.09 849 25.07 7.4 45.2 61 0.3 32.6
16:25 1020 30.12 849 25.07 7.5 45.6 58 -0.1 31.8
16:30 1020 30.12 849 25.07 7.6 45.6 59 0.1 32.1
16:35 1020 30.12 849 25.07 7.4 45.4 59 -0 32
16:40 1020 30.12 849 25.07 7.4 45.3 60 0.2 32.4
16:45 1020 30.12 849 25.07 7.6 45.7 62 0.8 33.5
16:50 1020 30.12 849 25.07 7.5 45.4 66 1.5 34.6
16:55 1020 30.12 849 25.07 6.3 43.4 72 1.7 35.1
17:00 1020 30.12 849 25.07 5.6 42 73 1 33.9
17:05 1020 30.12 849 25.07 5.6 42.1 70 0.6 33.1
17:10 1020 30.12 849 25.07 5.9 42.6 70 0.8 33.5
17:15 1020 30.12 849 25.07 6.1 42.9 67 0.5 32.8
17:20 1020 30.12 849 25.07 6.1 43 66 0.3 32.6
17:25 1020 30.12 849 25.07 6.1 43 66 0.4 32.7
17:30 1020 30.12 849 25.07 6.1 43 67 0.5 32.9
17:35 1020 30.12 849 25.07 6.2 43.2 67 0.5 33
17:40 1020 30.12 849 25.07 6.3 43.3 65 0.2 32.4
17:45 1020 30.12 849 25.07 6.5 43.6 64 0.1 32.2
17:50 1020 30.12 849 25.07 6.6 43.8 64 0.2 32.3
17:55 1020 30.12 849 25.07 6.7 44 63 0.1 32.2
18:00 1020 30.12 849 25.07 6.9 44.4 63 0.3 32.5
18:05 1020 30.12 849 25.07 7.1 44.7 61 0.1 32.2
18:10 1020 30.12 849 25.07 7.1 44.9 61 0.1 32.1
18:15 1020 30.12 849 25.07 7.1 44.8 59 -0.2 31.6
18:20 1020 30.12 849 25.07 7.3 45.2 60 0.1 32.1
18:25 1020 30.12 849 25.07 7.5 45.5 57 -0.4 31.3
18:30 1020 30.12 849 25.07 7.8 46.1 52 -1.4 29.4
18:35 1019 30.09 849 25.07 7.8 46.1 53 -1.2 29.9
18:40 1020 30.12 849 25.07 7.7 45.9 58 -0.1 31.9
18:45 1020 30.12 849 25.07 7.6 45.7 56 -0.7 30.8
18:50 1019 30.09 849 25.07 7.9 46.2 53 -1.1 30
18:55 1020 30.12 849 25.07 7.9 46.2 54 -0.8 30.6
19:00 1020 30.12 849 25.07 7.8 46.1 54 -0.8 30.6
19:05 1020 30.12 849 25.07 8 46.3 52 -1.4 29.5
19:10 1020 30.12 849 25.07 8.5 47.2 50 -1.4 29.6
19:15 1019 30.09 849 25.07 9.1 48.3 48 -1.3 29.7
19:20 1019 30.09 849 25.07 8.9 48 49 -1.1 30
19:25 1019 30.09 849 25.07 8.8 47.9 49 -1.3 29.6
19:30 1020 30.12 849 25.07 8.6 47.5 49 -1.3 29.6
19:35 1020 30.12 849 25.07 8.7 47.6 52 -0.6 30.9
19:40 1020 30.12 849 25.07 8.6 47.4 52 -0.6 30.8
19:45 1020 30.12 849 25.07 8.6 47.6 52 -0.6 30.9
19:50 1020 30.12 849 25.07 8.9 48 51 -0.6 31
19:55 1020 30.12 849 25.07 9.2 48.5 48 -1.1 29.9
20:00 1020 30.12 849 25.07 9.6 49.2 45 -1.8 28.8
20:05 1020 30.12 849 25.07 9.8 49.6 44 -2 28.4
20:10 1020 30.12 849 25.07 10.1 50.2 42 -2.2 28.1
20:15 1020 30.12 849 25.07 10.3 50.5 41 -2.5 27.6
20:20 1020 30.12 849 25.07 10.2 50.4 41 -2.5 27.6
20:25 1020 30.12 849 25.07 10.4 50.8 38 -3.3 26
20:30 1020 30.12 849 25.07 10.4 50.8 36 -4 24.9
20:35 1020 30.12 849 25.07 10.5 50.8 35 -4.2 24.4
20:40 1020 30.12 849 25.07 10.4 50.8 37 -3.5 25.7
20:45 1020 30.12 849 25.07 10.4 50.7 35 -4.3 24.3
20:50 1020 30.12 849 25.07 10.3 50.6 34 -4.8 23.4
20:55 1020 30.12 849 25.07 10.3 50.5 32 -5.5 22.1
21:00 1020 30.12 849 25.07 10.1 50.2 33 -5.3 22.5
21:05 1020 30.12 849 25.07 9.9 49.7 33 -5.7 21.7
21:10 1020 30.12 850 25.1 9.7 49.4 34 -5.5 22.1
21:15 1020 30.12 850 25.1 9.4 49 34 -5.5 22
21:20 1020 30.12 850 25.1 9.2 48.5 35 -5.7 21.8
21:25 1020 30.12 850 25.1 8.9 48 36 -5.2 22.6
21:30 1021 30.15 850 25.1 8.6 47.5 38 -5 23
21:35 1021 30.15 850 25.1 8.4 47.1 38 -5.1 22.9
21:40 1021 30.15 850 25.1 8.2 46.8 40 -4.7 23.5
21:45 1021 30.15 850 25.1 7.7 45.9 42 -4.3 24.3
21:50 1021 30.15 850 25.1 7.2 44.9 48 -3.2 26.3
21:55 1021 30.15 850 25.1 6.9 44.5 46 -4 24.9
22:00 1021 30.15 851 25.13 7.2 44.9 43 -4.5 23.9
22:05 1021 30.15 851 25.13 7.4 45.3 43 -4.5 23.9
22:10 1022 30.18 851 25.13 7.2 44.9 46 -3.6 25.5
22:15 1022 30.18 851 25.13 6.8 44.2 47 -3.7 25.4
22:20 1022 30.18 851 25.13 6.8 44.3 48 -3.6 25.6
22:25 1022 30.18 851 25.13 6.8 44.3 51 -2.6 27.3
22:30 1022 30.18 851 25.13 6.5 43.7 50 -3.3 26.1
22:35 1022 30.18 851 25.13 6.6 43.9 49 -3.3 26.1
22:40 1022 30.18 851 25.13 6.6 43.8 48 -3.6 25.5
22:45 1022 30.18 851 25.13 6.5 43.7 51 -2.9 26.7
22:50 1022 30.18 851 25.13 6.3 43.3 56 -1.9 28.5
22:55 1022 30.18 851 25.13 5.6 42.1 58 -2.1 28.3
23:00 1022 30.18 851 25.13 5 41.1 60 -2 28.3
23:05 1022 30.18 851 25.13 4.7 40.4 62 -1.9 28.6
23:10 1022 30.18 851 25.13 4.5 40.1 63 -2 28.4
23:15 1022 30.18 851 25.13 4.4 39.9 63 -2 28.4
23:20 1022 30.18 851 25.13 4.3 39.7 56 -3.7 25.4
23:25 1022 30.18 851 25.13 4.5 40.1 59 -2.9 26.7
23:30 1022 30.18 851 25.13 4.5 40 59 -2.9 26.8
23:35 1022 30.18 851 25.13 4.5 40 58 -3.1 26.4
23:40 1022 30.18 852 25.16 4.5 40.2 56 -3.6 25.6
23:45 1022 30.18 852 25.16 4.7 40.5 54 -3.8 25.2
23:50 1022 30.18 852 25.16 4.8 40.6 55 -3.5 25.6
23:55 1022 30.18 852 25.16 4.7 40.5 55 -3.7 25.4
24:00 1022 30.18 852 25.16 4.5 40.2 56 -3.5 25.6